createdAt,value
2022-09-20T00:00:48.243Z,85.67
2022-09-20T00:03:16.551Z,85.15
2022-09-20T00:05:46.023Z,85.58
2022-09-20T00:08:15.878Z,84.77
2022-09-20T00:10:43.122Z,85.43
2022-09-20T00:13:12.265Z,85.08
2022-09-20T00:15:46.026Z,85.96
2022-09-20T00:18:13.196Z,85.66
2022-09-20T00:20:46.889Z,85.66
2022-09-20T00:23:14.084Z,85.59
2022-09-20T00:25:41.089Z,85.73
2022-09-20T00:28:07.762Z,85.44
2022-09-20T00:30:34.822Z,85.81
2022-09-20T00:33:01.634Z,85.35
2022-09-20T00:35:29.673Z,85.61
2022-09-20T00:37:56.220Z,85.47
2022-09-20T00:40:24.377Z,84.96
2022-09-20T00:42:51.166Z,85.64
2022-09-20T00:45:29.315Z,85.09
2022-09-20T00:48:10.714Z,85.52
2022-09-20T00:50:39.831Z,85.14
2022-09-20T00:53:12.959Z,84.94
2022-09-20T00:55:46.084Z,85.53
2022-09-20T00:58:13.737Z,84.96
2022-09-20T01:00:42.395Z,85.21
2022-09-20T01:03:11.457Z,85.93
2022-09-20T01:05:39.639Z,85.38
2022-09-20T01:08:06.920Z,86.08
2022-09-20T01:10:33.535Z,85.67
2022-09-20T01:13:00.016Z,85.60
2022-09-20T01:15:29.887Z,85.20
2022-09-20T01:17:59.407Z,85.36
2022-09-20T01:20:30.306Z,85.51
2022-09-20T01:22:59.671Z,85.70
2022-09-20T01:25:54.060Z,85.70
2022-09-20T01:28:21.495Z,86.00
2022-09-20T01:31:00.251Z,86.25
2022-09-20T01:33:35.939Z,86.34
2022-09-20T01:36:05.360Z,85.38
2022-09-20T01:38:40.844Z,86.04
2022-09-20T01:41:14.496Z,85.74
2022-09-20T01:43:44.846Z,85.56
2022-09-20T01:46:28.900Z,85.52
2022-09-20T01:49:02.782Z,86.00
2022-09-20T01:51:50.283Z,85.52
2022-09-20T01:54:38.887Z,85.63
2022-09-20T01:57:08.035Z,86.08
2022-09-20T01:59:43.656Z,86.65
2022-09-20T02:02:34.854Z,85.66
2022-09-20T02:05:32.257Z,86.22
2022-09-20T02:08:16.493Z,86.09
2022-09-20T02:11:24.884Z,85.50
2022-09-20T02:14:16.288Z,85.43
2022-09-20T02:16:54.873Z,86.11
2022-09-20T02:19:39.864Z,85.91
2022-09-20T02:22:13.897Z,86.04
2022-09-20T02:24:49.239Z,85.86
2022-09-20T02:27:30.963Z,85.98
2022-09-20T02:30:12.810Z,86.25
2022-09-20T02:33:18.015Z,85.89
2022-09-20T02:36:11.960Z,85.58
2022-09-20T02:38:45.033Z,86.07
2022-09-20T02:41:20.345Z,85.67
2022-09-20T02:43:51.408Z,86.83
2022-09-20T02:46:28.806Z,86.39
2022-09-20T02:49:14.893Z,86.16
2022-09-20T02:51:46.760Z,87.16
2022-09-20T02:54:31.489Z,86.92
2022-09-20T02:57:12.586Z,86.83
2022-09-20T02:59:47.189Z,87.52
2022-09-20T03:02:25.023Z,86.94
2022-09-20T03:05:19.955Z,87.50
2022-09-20T03:08:11.857Z,88.16
2022-09-20T03:11:16.125Z,88.12
2022-09-20T03:14:13.704Z,87.87
2022-09-20T03:17:19.353Z,88.05
2022-09-20T03:20:12.815Z,87.33
2022-09-20T03:22:52.914Z,87.62
2022-09-20T03:25:42.689Z,88.08
2022-09-20T03:28:24.567Z,88.00
2022-09-20T03:31:15.502Z,88.01
2022-09-20T03:34:09.795Z,88.23
2022-09-20T03:36:55.435Z,88.72
2022-09-20T03:39:41.989Z,88.38
2022-09-20T03:42:11.579Z,88.21
2022-09-20T03:45:15.830Z,88.57
2022-09-20T03:48:03.520Z,88.59
2022-09-20T03:50:49.417Z,88.23
2022-09-20T03:53:27.992Z,88.13
2022-09-20T03:56:13.420Z,88.16
2022-09-20T03:59:19.008Z,88.68
2022-09-20T04:02:04.015Z,87.84
2022-09-20T04:04:34.977Z,87.81
2022-09-20T04:07:14.625Z,88.13
2022-09-20T04:10:15.360Z,88.83
2022-09-20T04:12:53.120Z,88.21
2022-09-20T04:15:45.094Z,88.06
2022-09-20T04:18:25.131Z,88.19
2022-09-20T04:21:31.098Z,88.99
2022-09-20T04:24:09.726Z,88.10
2022-09-20T04:26:44.685Z,88.76
2022-09-20T04:29:42.033Z,88.47
2022-09-20T04:32:36.915Z,88.14
2022-09-20T04:35:43.136Z,87.95
2022-09-20T04:38:15.172Z,87.88
2022-09-20T04:41:18.445Z,88.27
2022-09-20T04:43:52.226Z,88.84
2022-09-20T04:46:57.752Z,87.88
2022-09-20T04:49:36.228Z,88.23
2022-09-20T04:52:04.334Z,88.53
2022-09-20T04:55:12.103Z,88.50
2022-09-20T04:57:58.580Z,87.92
2022-09-20T05:00:51.539Z,88.32
2022-09-20T05:03:43.189Z,87.61
2022-09-20T05:06:38.756Z,88.28
2022-09-20T05:09:24.431Z,87.95
2022-09-20T05:12:13.007Z,87.32
2022-09-20T05:14:51.665Z,87.82
2022-09-20T05:17:18.331Z,88.15
2022-09-20T05:20:07.181Z,88.01
2022-09-20T05:22:44.153Z,87.90
2022-09-20T05:25:47.823Z,87.71
2022-09-20T05:28:45.176Z,88.20
2022-09-20T05:31:42.979Z,87.63
2022-09-20T05:34:36.082Z,87.38
2022-09-20T05:37:47.158Z,87.53
2022-09-20T05:40:19.306Z,88.19
2022-09-20T05:43:11.278Z,88.10
2022-09-20T05:46:02.377Z,88.47
2022-09-20T05:48:34.928Z,87.69
2022-09-20T05:51:13.592Z,87.81
2022-09-20T05:54:18.864Z,88.38
2022-09-20T05:56:59.005Z,88.46
2022-09-20T06:00:03.832Z,87.96
2022-09-20T06:03:07.876Z,88.42
2022-09-20T06:05:55.903Z,88.75
2022-09-20T06:09:05.931Z,89.10
2022-09-20T06:11:53.946Z,88.71
2022-09-20T06:14:34.749Z,88.78
2022-09-20T06:17:22.865Z,89.21
2022-09-20T06:20:23.124Z,88.70
2022-09-20T06:22:54.919Z,88.88
2022-09-20T06:25:41.382Z,88.91
2022-09-20T06:28:21.201Z,88.86
2022-09-20T06:30:50.440Z,88.49
2022-09-20T06:33:18.267Z,88.50
2022-09-20T06:35:53.832Z,88.93
2022-09-20T06:38:57.185Z,89.08
2022-09-20T06:41:31.063Z,89.29
2022-09-20T06:43:59.126Z,88.59
2022-09-20T06:46:31.087Z,88.55
2022-09-20T06:48:58.168Z,88.45
2022-09-20T06:51:27.054Z,88.84
2022-09-20T06:53:55.723Z,88.54
2022-09-20T06:56:27.047Z,87.89
2022-09-20T06:58:54.279Z,88.29
2022-09-20T07:01:29.777Z,88.49
2022-09-20T07:03:57.200Z,87.94
2022-09-20T07:06:23.699Z,87.41
2022-09-20T07:08:53.739Z,88.05
2022-09-20T07:11:24.119Z,87.92
2022-09-20T07:13:53.074Z,87.82
2022-09-20T07:16:20.579Z,86.71
2022-09-20T07:18:52.825Z,86.25
2022-09-20T07:21:21.223Z,86.73
2022-09-20T07:23:51.269Z,86.50
2022-09-20T07:26:24.011Z,86.59
2022-09-20T07:28:50.865Z,86.40
2022-09-20T07:31:23.375Z,87.11
2022-09-20T07:33:50.354Z,87.27
2022-09-20T07:36:17.861Z,86.73
2022-09-20T07:38:51.925Z,87.09
2022-09-20T07:41:19.851Z,87.92
2022-09-20T07:43:47.491Z,87.23
2022-09-20T07:46:14.101Z,87.73
2022-09-20T07:48:41.404Z,88.29
2022-09-20T07:51:10.960Z,87.80
2022-09-20T07:53:38.730Z,88.48
2022-09-20T07:56:11.990Z,87.82
2022-09-20T07:58:39.248Z,88.19
2022-09-20T08:01:08.836Z,87.70
2022-09-20T08:03:36.562Z,88.14
2022-09-20T08:06:07.156Z,87.53
2022-09-20T08:08:39.722Z,87.71
2022-09-20T08:11:15.500Z,87.54
2022-09-20T08:16:32.874Z,87.31
2022-09-20T08:19:01.356Z,87.70
2022-09-20T08:21:31.593Z,87.62
2022-09-20T08:23:59.515Z,87.69
2022-09-20T08:26:28.087Z,88.44
2022-09-20T08:28:57.040Z,87.82
2022-09-20T08:31:26.282Z,86.36
2022-09-20T08:33:54.502Z,86.61
2022-09-20T08:36:24.425Z,86.42
2022-09-20T08:41:46.692Z,86.24
2022-09-20T08:44:25.076Z,86.49
2022-09-20T08:47:21.208Z,85.87
2022-09-20T08:49:49.136Z,84.60
2022-09-20T08:52:19.395Z,84.23
2022-09-20T08:54:46.021Z,84.35
2022-09-20T08:57:17.906Z,83.30
2022-09-20T08:59:45.010Z,83.79
2022-09-20T09:02:21.518Z,82.00
2022-09-20T09:04:49.758Z,82.20
2022-09-20T09:07:21.766Z,81.11
2022-09-20T09:09:51.893Z,80.77
2022-09-20T09:12:25.158Z,80.33
2022-09-20T09:14:57.372Z,79.23
2022-09-20T09:17:28.079Z,79.81
2022-09-20T09:19:56.219Z,77.94
2022-09-20T09:22:44.119Z,77.20
2022-09-20T09:25:24.064Z,77.51
2022-09-20T09:27:50.810Z,77.67
2022-09-20T09:30:32.739Z,77.41
2022-09-20T09:33:29.003Z,78.40
2022-09-20T09:36:15.080Z,78.49
2022-09-20T09:38:47.831Z,77.49
2022-09-20T09:41:26.158Z,76.66
2022-09-20T09:44:02.116Z,76.76
2022-09-20T09:46:34.784Z,78.14
2022-09-20T09:49:21.788Z,76.83
2022-09-20T09:52:01.731Z,76.36
2022-09-20T09:54:36.012Z,77.00
2022-09-20T09:57:36.554Z,77.49
2022-09-20T10:00:20.730Z,78.97
2022-09-20T10:03:17.185Z,79.75
2022-09-20T10:06:01.923Z,79.54
2022-09-20T10:08:30.988Z,79.55
2022-09-20T10:11:00.847Z,78.33
2022-09-20T10:13:52.059Z,78.56
2022-09-20T10:16:56.501Z,79.22
2022-09-20T10:19:32.173Z,77.63
2022-09-20T10:22:17.794Z,78.15
2022-09-20T10:24:51.619Z,76.92
2022-09-20T10:27:39.899Z,76.83
2022-09-20T10:30:09.513Z,76.56
2022-09-20T10:32:54.700Z,76.68
2022-09-20T10:35:46.281Z,77.43
2022-09-20T10:38:16.863Z,75.66
2022-09-20T10:41:23.647Z,76.06
2022-09-20T10:44:05.339Z,74.37
2022-09-20T10:46:51.630Z,74.51
2022-09-20T10:49:37.339Z,73.81
2022-09-20T10:52:15.532Z,74.42
2022-09-20T10:55:04.665Z,74.53
2022-09-20T10:57:56.442Z,73.30
2022-09-20T11:00:26.961Z,73.79
2022-09-20T11:02:57.630Z,71.54
2022-09-20T11:05:37.721Z,70.41
2022-09-20T11:08:13.641Z,71.00
2022-09-20T11:10:52.687Z,71.20
2022-09-20T11:13:41.276Z,68.38
2022-09-20T11:16:26.117Z,67.72
2022-09-20T11:19:19.063Z,66.51
2022-09-20T11:22:06.176Z,65.39
2022-09-20T11:24:38.756Z,65.00
2022-09-20T11:27:15.254Z,65.52
2022-09-20T11:29:50.383Z,64.75
2022-09-20T11:32:24.207Z,64.89
2022-09-20T11:35:05.113Z,64.40
2022-09-20T11:37:38.899Z,65.25
2022-09-20T11:40:29.338Z,65.84
2022-09-20T11:43:02.401Z,64.08
2022-09-20T11:45:30.432Z,64.69
2022-09-20T11:48:07.941Z,64.43
2022-09-20T11:51:00.895Z,63.50
2022-09-20T11:53:42.555Z,63.80
2022-09-20T11:56:25.860Z,62.42
2022-09-20T11:59:01.519Z,62.84
2022-09-20T12:01:32.612Z,61.46
2022-09-20T12:04:30.710Z,62.92
2022-09-20T12:07:03.520Z,62.68
2022-09-20T12:09:41.005Z,63.12
2022-09-20T12:12:15.100Z,61.32
2022-09-20T12:14:42.243Z,61.04
2022-09-20T12:17:46.896Z,62.82
2022-09-20T12:20:38.781Z,62.94
2022-09-20T12:23:42.649Z,62.47
2022-09-20T12:26:32.184Z,62.42
2022-09-20T12:29:01.295Z,61.31
2022-09-20T12:31:34.238Z,61.78
2022-09-20T12:34:12.588Z,61.28
2022-09-20T12:37:14.657Z,62.12
2022-09-20T12:39:52.171Z,61.39
2022-09-20T12:42:18.567Z,61.21
2022-09-20T12:44:51.158Z,61.82
2022-09-20T12:47:26.312Z,62.68
2022-09-20T12:50:14.708Z,62.10
2022-09-20T12:53:16.276Z,61.56
2022-09-20T12:55:52.800Z,62.87
2022-09-20T12:58:26.177Z,62.36
2022-09-20T13:00:56.031Z,62.46
2022-09-20T13:03:25.661Z,62.67
2022-09-20T13:06:05.328Z,63.13
2022-09-20T13:08:36.627Z,63.06
2022-09-20T13:11:18.657Z,63.47
2022-09-20T13:14:10.447Z,63.94
2022-09-20T13:16:39.950Z,64.75
2022-09-20T13:19:09.435Z,64.46
2022-09-20T13:21:46.771Z,64.87
2022-09-20T13:24:19.390Z,64.89
2022-09-20T13:26:54.377Z,64.71
2022-09-20T13:29:53.914Z,64.03
2022-09-20T13:32:35.370Z,61.71
2022-09-20T13:35:18.347Z,62.69
2022-09-20T13:37:47.179Z,62.48
2022-09-20T13:40:42.326Z,63.64
2022-09-20T13:43:32.749Z,64.11
2022-09-20T13:46:07.801Z,64.24
2022-09-20T13:48:34.600Z,64.28
2022-09-20T13:51:01.558Z,65.67
2022-09-20T13:53:41.585Z,65.47
2022-09-20T13:56:20.870Z,67.34
2022-09-20T13:58:49.623Z,69.23
2022-09-20T14:01:30.071Z,69.30
2022-09-20T14:04:13.461Z,69.18
2022-09-20T14:06:40.984Z,68.70
2022-09-20T14:09:11.259Z,68.58
2022-09-20T14:11:39.072Z,66.75
2022-09-20T14:14:07.976Z,67.43
2022-09-20T14:16:39.581Z,66.34
2022-09-20T14:19:09.738Z,66.52
2022-09-20T14:21:37.676Z,64.00
2022-09-20T14:24:25.815Z,64.88
2022-09-20T14:27:20.902Z,65.06
2022-09-20T14:29:52.950Z,63.52
2022-09-20T14:32:20.463Z,65.06
2022-09-20T14:34:56.624Z,63.66
2022-09-20T14:37:28.222Z,64.63
2022-09-20T14:40:33.425Z,65.17
2022-09-20T14:43:03.524Z,64.53
2022-09-20T14:45:36.705Z,65.15
2022-09-20T14:48:26.476Z,64.14
2022-09-20T14:51:31.048Z,64.09
2022-09-20T14:54:07.188Z,63.14
2022-09-20T14:56:37.227Z,63.42
2022-09-20T14:59:25.748Z,62.69
2022-09-20T15:02:03.661Z,62.39
2022-09-20T15:04:35.427Z,62.23
2022-09-20T15:07:06.312Z,61.30
2022-09-20T15:09:33.828Z,61.15
2022-09-20T15:12:21.339Z,60.97
2022-09-20T15:14:53.007Z,60.41
2022-09-20T15:17:21.431Z,60.57
2022-09-20T15:19:53.120Z,59.72
2022-09-20T15:22:19.826Z,60.64
2022-09-20T15:24:46.318Z,60.18
2022-09-20T15:27:18.586Z,61.11
2022-09-20T15:29:49.811Z,61.40
2022-09-20T15:32:21.368Z,60.94
2022-09-20T15:34:48.371Z,60.70
2022-09-20T15:37:15.071Z,61.10
2022-09-20T15:39:43.228Z,61.35
2022-09-20T15:44:54.179Z,62.48
2022-09-20T15:47:49.876Z,61.55
2022-09-20T15:50:17.424Z,61.78
2022-09-20T15:52:44.239Z,60.98
2022-09-20T15:55:10.921Z,60.89
2022-09-20T15:57:37.403Z,60.04
2022-09-20T16:00:04.564Z,59.82
2022-09-20T16:02:31.200Z,61.54
2022-09-20T16:05:00.745Z,61.41
2022-09-20T16:07:27.387Z,61.65
2022-09-20T16:09:55.421Z,60.82
2022-09-20T16:12:23.879Z,61.42
2022-09-20T16:14:50.926Z,61.58
2022-09-20T16:17:18.336Z,62.16
2022-09-20T16:19:46.315Z,62.34
2022-09-20T16:22:12.685Z,61.53
2022-09-20T16:24:39.031Z,61.54
2022-09-20T16:27:07.375Z,61.63
2022-09-20T16:29:34.462Z,61.87
2022-09-20T16:32:03.789Z,61.40
2022-09-20T16:34:32.009Z,62.60
2022-09-20T16:37:17.643Z,62.25
2022-09-20T16:39:44.253Z,60.71
2022-09-20T16:42:13.340Z,61.15
2022-09-20T16:44:42.656Z,62.73
2022-09-20T16:47:18.174Z,61.85
2022-09-20T16:49:46.870Z,62.75
2022-09-20T16:52:13.436Z,61.97
2022-09-20T16:54:40.527Z,61.84
2022-09-20T16:57:07.058Z,62.21
2022-09-20T16:59:33.708Z,62.09
2022-09-20T17:02:02.761Z,62.33
2022-09-20T17:04:30.151Z,62.17
2022-09-20T17:06:56.855Z,62.93
2022-09-20T17:09:23.424Z,63.07
2022-09-20T17:11:51.255Z,63.50
2022-09-20T17:14:20.300Z,63.47
2022-09-20T17:16:48.168Z,63.80
2022-09-20T17:19:18.951Z,64.14
2022-09-20T17:21:49.838Z,65.31
2022-09-20T17:24:17.859Z,64.63
2022-09-20T17:26:45.299Z,65.06
2022-09-20T17:29:16.884Z,64.95
2022-09-20T17:31:48.761Z,65.44
2022-09-20T17:34:21.208Z,65.66
2022-09-20T17:36:47.918Z,66.22
2022-09-20T17:39:15.859Z,66.74
2022-09-20T17:41:45.020Z,67.70
2022-09-20T17:44:12.263Z,67.26
2022-09-20T17:46:44.137Z,67.66
2022-09-20T17:49:13.031Z,67.73
2022-09-20T17:51:44.630Z,68.14
2022-09-20T17:54:14.727Z,68.60
2022-09-20T17:56:46.388Z,68.65
2022-09-20T17:59:17.677Z,68.86
2022-09-20T18:01:46.095Z,69.12
2022-09-20T18:04:13.365Z,70.84
2022-09-20T18:06:44.460Z,70.88
2022-09-20T18:09:14.265Z,70.77
2022-09-20T18:11:42.452Z,71.36
2022-09-20T18:14:13.420Z,71.34
2022-09-20T18:16:40.404Z,71.66
2022-09-20T18:19:08.122Z,72.00
2022-09-20T18:21:36.090Z,72.41
2022-09-20T18:24:05.814Z,72.40
2022-09-20T18:26:32.710Z,72.35
2022-09-20T18:29:04.681Z,72.43
2022-09-20T18:31:45.013Z,72.70
2022-09-20T18:34:20.687Z,72.69
2022-09-20T18:36:57.099Z,72.31
2022-09-20T18:39:35.022Z,73.16
2022-09-20T18:42:02.499Z,73.48
2022-09-20T18:44:32.811Z,73.50
2022-09-20T18:47:01.103Z,72.90
2022-09-20T18:49:29.108Z,73.20
2022-09-20T18:51:56.370Z,73.11
2022-09-20T18:54:22.946Z,73.69
2022-09-20T18:56:50.681Z,73.79
2022-09-20T18:59:25.249Z,73.36
2022-09-20T19:01:55.175Z,74.47
2022-09-20T19:05:11.870Z,73.69
2022-09-20T19:07:46.987Z,74.49
2022-09-20T19:10:43.743Z,73.85
2022-09-20T19:13:39.246Z,74.83
2022-09-20T19:16:22.857Z,75.54
2022-09-20T19:19:42.847Z,74.67
2022-09-20T19:22:34.981Z,74.37
2022-09-20T19:25:17.116Z,74.60
2022-09-20T19:27:43.765Z,75.19
2022-09-20T19:30:13.726Z,75.20
2022-09-20T19:32:40.518Z,75.25
2022-09-20T19:35:17.427Z,74.97
2022-09-20T19:37:55.750Z,75.13
2022-09-20T19:41:19.102Z,74.63
2022-09-20T19:44:00.784Z,74.93
2022-09-20T19:46:58.465Z,75.24
2022-09-20T19:49:33.793Z,75.17
2022-09-20T19:52:01.212Z,74.75
2022-09-20T19:54:32.037Z,75.27
2022-09-20T19:57:00.908Z,75.13
2022-09-20T19:59:34.556Z,75.47
2022-09-20T20:02:02.713Z,75.82
2022-09-20T20:04:32.004Z,75.11
2022-09-20T20:07:10.440Z,75.63
2022-09-20T20:10:02.563Z,75.78
2022-09-20T20:12:40.367Z,75.98
2022-09-20T20:16:00.524Z,75.65
2022-09-20T20:18:44.069Z,75.87
2022-09-20T20:21:26.080Z,76.42
2022-09-20T20:24:12.284Z,77.05
2022-09-20T20:26:41.929Z,76.42
2022-09-20T20:29:10.655Z,76.33
2022-09-20T20:31:39.107Z,77.13
2022-09-20T20:34:06.087Z,76.70
2022-09-20T20:36:37.096Z,76.48
2022-09-20T20:39:07.060Z,76.78
2022-09-20T20:41:33.721Z,77.44
2022-09-20T20:44:09.309Z,77.08
2022-09-20T20:46:36.059Z,76.89
2022-09-20T20:49:05.175Z,77.53
2022-09-20T20:51:33.298Z,77.86
2022-09-20T20:53:59.846Z,77.74
2022-09-20T20:56:31.473Z,77.67
2022-09-20T20:59:05.153Z,77.63
2022-09-20T21:01:45.609Z,77.16
2022-09-20T21:04:20.376Z,77.84
2022-09-20T21:06:47.404Z,77.75
2022-09-20T21:09:13.834Z,77.81
2022-09-20T21:11:44.092Z,77.88
2022-09-20T21:14:12.506Z,77.76
2022-09-20T21:16:45.071Z,77.58
2022-09-20T21:19:14.939Z,77.81
2022-09-20T21:21:43.465Z,77.00
2022-09-20T21:24:12.361Z,78.14
2022-09-20T21:26:39.806Z,77.98
2022-09-20T21:29:09.943Z,76.94
2022-09-20T21:31:39.949Z,77.88
2022-09-20T21:34:11.124Z,76.89
2022-09-20T21:36:41.268Z,77.77
2022-09-20T21:39:07.897Z,77.73
2022-09-20T21:41:36.523Z,77.64
2022-09-20T21:44:05.133Z,77.73
2022-09-20T21:46:41.944Z,78.86
2022-09-20T21:49:12.595Z,78.63
2022-09-20T21:51:41.994Z,78.13
2022-09-20T21:54:08.862Z,78.68
2022-09-20T21:56:37.140Z,77.89
2022-09-20T21:59:06.232Z,78.49
2022-09-20T22:01:35.923Z,78.67
2022-09-20T22:04:12.582Z,78.57
2022-09-20T22:06:42.101Z,78.96
2022-09-20T22:09:13.915Z,79.07
2022-09-20T22:11:42.882Z,79.87
2022-09-20T22:14:10.359Z,79.94
2022-09-20T22:16:40.138Z,80.10
2022-09-20T22:19:08.708Z,79.80
2022-09-20T22:21:40.877Z,79.47
2022-09-20T22:24:10.502Z,79.49
2022-09-20T22:26:57.278Z,79.82
2022-09-20T22:29:23.937Z,79.63
2022-09-20T22:31:50.829Z,79.32
2022-09-20T22:34:22.168Z,80.03
2022-09-20T22:36:49.299Z,79.66
2022-09-20T22:39:17.044Z,79.72
2022-09-20T22:41:44.636Z,80.12
2022-09-20T22:44:12.127Z,80.51
2022-09-20T22:46:39.081Z,80.03
2022-09-20T22:49:07.065Z,80.28
2022-09-20T22:51:34.249Z,80.01
2022-09-20T22:54:05.835Z,80.46
2022-09-20T22:56:33.027Z,80.04
2022-09-20T22:59:04.218Z,79.94
2022-09-20T23:01:35.019Z,80.23
2022-09-20T23:04:04.351Z,80.10
2022-09-20T23:06:42.911Z,79.65
2022-09-20T23:09:12.475Z,78.94
2022-09-20T23:11:42.185Z,80.01
2022-09-20T23:14:12.199Z,80.17
2022-09-20T23:16:39.628Z,79.95
2022-09-20T23:19:07.812Z,80.08
2022-09-20T23:21:36.308Z,80.60
2022-09-20T23:24:05.257Z,81.09
2022-09-20T23:26:33.720Z,80.45
2022-09-20T23:29:06.948Z,80.68
2022-09-20T23:31:36.479Z,80.70
2022-09-20T23:34:06.326Z,80.11
2022-09-20T23:36:35.872Z,79.90
2022-09-20T23:39:02.483Z,80.45
2022-09-20T23:41:29.479Z,81.17
2022-09-20T23:43:56.124Z,81.00
2022-09-20T23:46:25.580Z,80.58
2022-09-20T23:48:53.007Z,81.07
2022-09-20T23:51:23.416Z,80.96
2022-09-20T23:53:51.686Z,80.58
2022-09-20T23:56:19.137Z,81.04
2022-09-20T23:58:45.847Z,81.65
